sensor_id;sensor_type;location;lat;lon;timestamp;pressure;altitude;pressure_sealevel;temperature;humidity
10946;BME280;5525;42.648;23.368;2023-03-24T00:00:21;94775.16;;;6.01;100.00
10946;BME280;5525;42.648;23.368;2023-03-24T00:02:48;94768.50;;;5.80;100.00
10946;BME280;5525;42.648;23.368;2023-03-24T00:05:18;94767.13;;;5.83;100.00
10946;BME280;5525;42.648;23.368;2023-03-24T00:07:46;94774.09;;;5.84;100.00
10946;BME280;5525;42.648;23.368;2023-03-24T00:10:15;94758.53;;;5.67;100.00
10946;BME280;5525;42.648;23.368;2023-03-24T00:12:42;94768.47;;;5.85;100.00
10946;BME280;5525;42.648;23.368;2023-03-24T00:15:12;94766.69;;;5.94;100.00
10946;BME280;5525;42.648;23.368;2023-03-24T00:17:39;94765.75;;;6.04;100.00
10946;BME280;5525;42.648;23.368;2023-03-24T00:20:08;94771.97;;;6.18;100.00
10946;BME280;5525;42.648;23.368;2023-03-24T00:22:41;94774.00;;;6.07;100.00
10946;BME280;5525;42.648;23.368;2023-03-24T00:25:14;94775.25;;;5.96;100.00
10946;BME280;5525;42.648;23.368;2023-03-24T00:27:41;94777.34;;;5.99;100.00
10946;BME280;5525;42.648;23.368;2023-03-24T00:30:10;94788.66;;;5.96;100.00
10946;BME280;5525;42.648;23.368;2023-03-24T00:32:37;94783.19;;;6.01;100.00
10946;BME280;5525;42.648;23.368;2023-03-24T00:35:06;94775.97;;;6.02;100.00
10946;BME280;5525;42.648;23.368;2023-03-24T00:37:34;94781.66;;;6.14;100.00
10946;BME280;5525;42.648;23.368;2023-03-24T00:40:04;94781.38;;;6.15;100.00
10946;BME280;5525;42.648;23.368;2023-03-24T00:42:33;94775.13;;;6.20;100.00
10946;BME280;5525;42.648;23.368;2023-03-24T00:45:01;94775.84;;;6.25;100.00
10946;BME280;5525;42.648;23.368;2023-03-24T00:47:30;94770.13;;;6.32;100.00
10946;BME280;5525;42.648;23.368;2023-03-24T00:50:01;94774.75;;;6.26;100.00
10946;BME280;5525;42.648;23.368;2023-03-24T00:52:28;94772.72;;;6.18;100.00
10946;BME280;5525;42.648;23.368;2023-03-24T00:54:59;94767.38;;;6.18;100.00
10946;BME280;5525;42.648;23.368;2023-03-24T00:57:28;94763.22;;;6.26;100.00
10946;BME280;5525;42.648;23.368;2023-03-24T01:00:00;94761.19;;;6.36;100.00
10946;BME280;5525;42.648;23.368;2023-03-24T01:02:33;94751.06;;;6.47;100.00
10946;BME280;5525;42.648;23.368;2023-03-24T01:05:01;94753.00;;;6.28;100.00
10946;BME280;5525;42.648;23.368;2023-03-24T01:07:28;94755.59;;;6.33;100.00
10946;BME280;5525;42.648;23.368;2023-03-24T01:09:56;94766.38;;;6.14;100.00
10946;BME280;5525;42.648;23.368;2023-03-24T01:12:23;94756.88;;;6.22;100.00
10946;BME280;5525;42.648;23.368;2023-03-24T01:14:51;94761.91;;;6.10;100.00
10946;BME280;5525;42.648;23.368;2023-03-24T01:17:18;94760.31;;;6.09;100.00
10946;BME280;5525;42.648;23.368;2023-03-24T01:19:46;94751.75;;;6.07;100.00
10946;BME280;5525;42.648;23.368;2023-03-24T01:22:13;94759.63;;;5.85;100.00
10946;BME280;5525;42.648;23.368;2023-03-24T01:24:41;94751.44;;;5.76;100.00
10946;BME280;5525;42.648;23.368;2023-03-24T01:27:08;94756.50;;;5.78;100.00
10946;BME280;5525;42.648;23.368;2023-03-24T01:29:35;94755.16;;;5.75;100.00
10946;BME280;5525;42.648;23.368;2023-03-24T01:32:03;94751.63;;;5.80;100.00
10946;BME280;5525;42.648;23.368;2023-03-24T01:34:30;94756.63;;;5.68;100.00
10946;BME280;5525;42.648;23.368;2023-03-24T01:36:57;94754.13;;;5.39;100.00
10946;BME280;5525;42.648;23.368;2023-03-24T01:39:24;94758.59;;;5.25;100.00
10946;BME280;5525;42.648;23.368;2023-03-24T01:41:51;94756.25;;;5.18;100.00
10946;BME280;5525;42.648;23.368;2023-03-24T01:44:26;94752.72;;;5.23;100.00
10946;BME280;5525;42.648;23.368;2023-03-24T01:46:54;94756.81;;;5.15;100.00
10946;BME280;5525;42.648;23.368;2023-03-24T01:49:25;94758.16;;;5.37;100.00
10946;BME280;5525;42.648;23.368;2023-03-24T01:51:55;94754.97;;;5.35;100.00
10946;BME280;5525;42.648;23.368;2023-03-24T01:54:28;94762.13;;;5.20;100.00
10946;BME280;5525;42.648;23.368;2023-03-24T01:56:58;94761.13;;;5.16;100.00
10946;BME280;5525;42.648;23.368;2023-03-24T01:59:29;94752.41;;;5.24;100.00
10946;BME280;5525;42.648;23.368;2023-03-24T02:01:57;94753.91;;;5.12;100.00
10946;BME280;5525;42.648;23.368;2023-03-24T02:04:30;94760.44;;;5.24;100.00
10946;BME280;5525;42.648;23.368;2023-03-24T02:07:03;94762.84;;;5.26;100.00
10946;BME280;5525;42.648;23.368;2023-03-24T02:09:33;94766.00;;;5.09;100.00
10946;BME280;5525;42.648;23.368;2023-03-24T02:12:00;94769.56;;;5.05;100.00
10946;BME280;5525;42.648;23.368;2023-03-24T02:14:28;94774.28;;;5.13;100.00
10946;BME280;5525;42.648;23.368;2023-03-24T02:17:11;94772.50;;;5.03;100.00
10946;BME280;5525;42.648;23.368;2023-03-24T02:20:07;94778.72;;;4.99;100.00
10946;BME280;5525;42.648;23.368;2023-03-24T02:26:20;94769.84;;;4.80;100.00
10946;BME280;5525;42.648;23.368;2023-03-24T02:29:00;94763.00;;;4.92;100.00
10946;BME280;5525;42.648;23.368;2023-03-24T02:31:55;94774.81;;;4.91;100.00
10946;BME280;5525;42.648;23.368;2023-03-24T02:34:46;94769.22;;;4.88;100.00
10946;BME280;5525;42.648;23.368;2023-03-24T02:40:22;94771.94;;;5.06;100.00
10946;BME280;5525;42.648;23.368;2023-03-24T02:42:59;94767.41;;;5.26;100.00
10946;BME280;5525;42.648;23.368;2023-03-24T02:45:34;94760.41;;;5.48;100.00
10946;BME280;5525;42.648;23.368;2023-03-24T02:48:15;94762.66;;;5.41;100.00
10946;BME280;5525;42.648;23.368;2023-03-24T02:50:50;94756.16;;;5.47;100.00
10946;BME280;5525;42.648;23.368;2023-03-24T02:53:22;94738.91;;;5.35;100.00
10946;BME280;5525;42.648;23.368;2023-03-24T02:55:54;94744.50;;;5.38;100.00
10946;BME280;5525;42.648;23.368;2023-03-24T02:58:27;94742.03;;;5.42;100.00
10946;BME280;5525;42.648;23.368;2023-03-24T03:01:02;94741.38;;;5.50;100.00
10946;BME280;5525;42.648;23.368;2023-03-24T03:03:33;94737.81;;;5.54;100.00
10946;BME280;5525;42.648;23.368;2023-03-24T03:06:07;94733.41;;;5.63;100.00
10946;BME280;5525;42.648;23.368;2023-03-24T03:08:38;94726.81;;;5.74;100.00
10946;BME280;5525;42.648;23.368;2023-03-24T03:11:12;94722.47;;;5.60;100.00
10946;BME280;5525;42.648;23.368;2023-03-24T03:13:43;94729.84;;;5.49;100.00
10946;BME280;5525;42.648;23.368;2023-03-24T03:16:15;94729.22;;;5.39;100.00
10946;BME280;5525;42.648;23.368;2023-03-24T03:18:48;94737.69;;;5.27;100.00
10946;BME280;5525;42.648;23.368;2023-03-24T03:21:19;94733.84;;;5.14;100.00
10946;BME280;5525;42.648;23.368;2023-03-24T03:23:49;94736.50;;;5.14;100.00
10946;BME280;5525;42.648;23.368;2023-03-24T03:26:19;94733.66;;;5.06;100.00
10946;BME280;5525;42.648;23.368;2023-03-24T03:28:51;94745.19;;;4.83;100.00
10946;BME280;5525;42.648;23.368;2023-03-24T03:31:24;94737.28;;;4.96;100.00
10946;BME280;5525;42.648;23.368;2023-03-24T03:33:59;94733.09;;;5.09;100.00
10946;BME280;5525;42.648;23.368;2023-03-24T03:36:33;94727.69;;;5.14;100.00
10946;BME280;5525;42.648;23.368;2023-03-24T03:39:09;94724.94;;;5.38;100.00
10946;BME280;5525;42.648;23.368;2023-03-24T03:41:39;94725.31;;;5.50;100.00
10946;BME280;5525;42.648;23.368;2023-03-24T03:44:07;94714.38;;;5.46;100.00
10946;BME280;5525;42.648;23.368;2023-03-24T03:46:35;94728.63;;;5.60;100.00
10946;BME280;5525;42.648;23.368;2023-03-24T03:49:02;94722.03;;;5.53;100.00
10946;BME280;5525;42.648;23.368;2023-03-24T03:51:31;94738.03;;;5.39;100.00
10946;BME280;5525;42.648;23.368;2023-03-24T03:54:00;94722.50;;;5.41;100.00
10946;BME280;5525;42.648;23.368;2023-03-24T03:56:30;94733.78;;;5.38;100.00
10946;BME280;5525;42.648;23.368;2023-03-24T03:58:59;94732.75;;;5.34;100.00
10946;BME280;5525;42.648;23.368;2023-03-24T04:01:27;94736.72;;;5.37;100.00
10946;BME280;5525;42.648;23.368;2023-03-24T04:04:19;94731.66;;;5.35;100.00
10946;BME280;5525;42.648;23.368;2023-03-24T04:07:00;94741.81;;;5.38;100.00
10946;BME280;5525;42.648;23.368;2023-03-24T04:09:36;94744.31;;;5.11;100.00
10946;BME280;5525;42.648;23.368;2023-03-24T04:12:33;94748.03;;;5.15;100.00
10946;BME280;5525;42.648;23.368;2023-03-24T04:15:28;94751.00;;;5.13;100.00
10946;BME280;5525;42.648;23.368;2023-03-24T04:18:25;94753.50;;;5.05;100.00
10946;BME280;5525;42.648;23.368;2023-03-24T04:21:07;94756.13;;;5.10;100.00
10946;BME280;5525;42.648;23.368;2023-03-24T04:23:43;94750.47;;;5.11;100.00
10946;BME280;5525;42.648;23.368;2023-03-24T04:26:18;94739.81;;;5.06;100.00
10946;BME280;5525;42.648;23.368;2023-03-24T04:29:01;94746.28;;;5.05;100.00
10946;BME280;5525;42.648;23.368;2023-03-24T04:31:31;94747.72;;;4.98;100.00
10946;BME280;5525;42.648;23.368;2023-03-24T04:34:03;94748.47;;;4.98;100.00
10946;BME280;5525;42.648;23.368;2023-03-24T04:36:40;94749.41;;;4.89;100.00
10946;BME280;5525;42.648;23.368;2023-03-24T04:39:12;94750.22;;;4.89;100.00
10946;BME280;5525;42.648;23.368;2023-03-24T04:41:41;94752.59;;;4.91;100.00
10946;BME280;5525;42.648;23.368;2023-03-24T04:44:09;94757.31;;;4.99;100.00
10946;BME280;5525;42.648;23.368;2023-03-24T04:46:38;94758.91;;;5.00;100.00
10946;BME280;5525;42.648;23.368;2023-03-24T04:49:05;94767.69;;;5.05;100.00
10946;BME280;5525;42.648;23.368;2023-03-24T04:51:32;94770.22;;;5.15;100.00
10946;BME280;5525;42.648;23.368;2023-03-24T04:53:59;94774.22;;;5.18;100.00
10946;BME280;5525;42.648;23.368;2023-03-24T04:56:33;94773.03;;;5.05;100.00
10946;BME280;5525;42.648;23.368;2023-03-24T04:59:03;94775.91;;;5.09;100.00
10946;BME280;5525;42.648;23.368;2023-03-24T05:01:31;94777.22;;;5.11;100.00
10946;BME280;5525;42.648;23.368;2023-03-24T05:04:03;94784.06;;;4.99;100.00
10946;BME280;5525;42.648;23.368;2023-03-24T05:06:30;94786.25;;;4.73;100.00
10946;BME280;5525;42.648;23.368;2023-03-24T05:08:57;94785.53;;;4.63;100.00
10946;BME280;5525;42.648;23.368;2023-03-24T05:11:24;94776.66;;;4.91;100.00
10946;BME280;5525;42.648;23.368;2023-03-24T05:13:51;94784.19;;;4.89;100.00
10946;BME280;5525;42.648;23.368;2023-03-24T05:16:18;94792.63;;;5.01;100.00
10946;BME280;5525;42.648;23.368;2023-03-24T05:18:44;94793.81;;;5.13;100.00
10946;BME280;5525;42.648;23.368;2023-03-24T05:21:12;94791.63;;;5.15;100.00
10946;BME280;5525;42.648;23.368;2023-03-24T05:23:39;94789.22;;;5.38;100.00
10946;BME280;5525;42.648;23.368;2023-03-24T05:26:06;94790.38;;;5.50;100.00
10946;BME280;5525;42.648;23.368;2023-03-24T05:28:33;94792.13;;;5.41;100.00
10946;BME280;5525;42.648;23.368;2023-03-24T05:31:00;94800.28;;;5.68;100.00
10946;BME280;5525;42.648;23.368;2023-03-24T05:33:26;94797.84;;;5.72;100.00
10946;BME280;5525;42.648;23.368;2023-03-24T05:35:53;94797.19;;;5.61;100.00
10946;BME280;5525;42.648;23.368;2023-03-24T05:38:21;94802.03;;;5.59;100.00
10946;BME280;5525;42.648;23.368;2023-03-24T05:40:48;94801.44;;;5.81;100.00
10946;BME280;5525;42.648;23.368;2023-03-24T05:43:15;94789.53;;;5.92;100.00
10946;BME280;5525;42.648;23.368;2023-03-24T05:45:42;94807.91;;;5.98;100.00
10946;BME280;5525;42.648;23.368;2023-03-24T05:48:09;94791.53;;;6.00;100.00
10946;BME280;5525;42.648;23.368;2023-03-24T05:50:35;94794.19;;;6.18;100.00
10946;BME280;5525;42.648;23.368;2023-03-24T05:53:02;94788.91;;;6.45;100.00
10946;BME280;5525;42.648;23.368;2023-03-24T05:55:30;94788.44;;;6.70;100.00
10946;BME280;5525;42.648;23.368;2023-03-24T05:57:57;94785.28;;;6.68;100.00
10946;BME280;5525;42.648;23.368;2023-03-24T06:00:26;94789.91;;;6.63;100.00
10946;BME280;5525;42.648;23.368;2023-03-24T06:02:53;94788.34;;;6.75;100.00
10946;BME280;5525;42.648;23.368;2023-03-24T06:05:20;94794.31;;;7.00;100.00
10946;BME280;5525;42.648;23.368;2023-03-24T06:07:47;94797.50;;;6.74;100.00
10946;BME280;5525;42.648;23.368;2023-03-24T06:10:14;94804.47;;;6.75;100.00
10946;BME280;5525;42.648;23.368;2023-03-24T06:12:44;94803.41;;;7.04;100.00
10946;BME280;5525;42.648;23.368;2023-03-24T06:15:11;94802.59;;;7.30;100.00
10946;BME280;5525;42.648;23.368;2023-03-24T06:17:41;94799.94;;;7.66;100.00
10946;BME280;5525;42.648;23.368;2023-03-24T06:20:10;94804.16;;;7.94;100.00
10946;BME280;5525;42.648;23.368;2023-03-24T06:22:41;94803.19;;;8.12;100.00
10946;BME280;5525;42.648;23.368;2023-03-24T06:25:09;94800.53;;;8.34;100.00
10946;BME280;5525;42.648;23.368;2023-03-24T06:27:36;94800.31;;;8.44;100.00
10946;BME280;5525;42.648;23.368;2023-03-24T06:30:06;94792.81;;;8.63;100.00
10946;BME280;5525;42.648;23.368;2023-03-24T06:32:32;94792.09;;;8.80;100.00
10946;BME280;5525;42.648;23.368;2023-03-24T06:35:00;94797.59;;;8.22;100.00
10946;BME280;5525;42.648;23.368;2023-03-24T06:37:26;94805.09;;;8.47;100.00
10946;BME280;5525;42.648;23.368;2023-03-24T06:39:53;94806.59;;;8.62;100.00
10946;BME280;5525;42.648;23.368;2023-03-24T06:42:20;94803.38;;;8.82;100.00
10946;BME280;5525;42.648;23.368;2023-03-24T06:44:46;94808.88;;;8.77;100.00
10946;BME280;5525;42.648;23.368;2023-03-24T06:47:14;94807.66;;;9.13;100.00
10946;BME280;5525;42.648;23.368;2023-03-24T06:49:41;94804.53;;;11.53;100.00
10946;BME280;5525;42.648;23.368;2023-03-24T06:52:08;94792.94;;;16.55;100.00
10946;BME280;5525;42.648;23.368;2023-03-24T06:54:35;94785.75;;;20.34;74.47
10946;BME280;5525;42.648;23.368;2023-03-24T06:57:02;94781.09;;;23.71;53.62
10946;BME280;5525;42.648;23.368;2023-03-24T06:59:28;94788.41;;;25.54;42.99
10946;BME280;5525;42.648;23.368;2023-03-24T07:01:55;94800.66;;;27.61;36.93
10946;BME280;5525;42.648;23.368;2023-03-24T07:04:23;94797.31;;;28.85;33.39
10946;BME280;5525;42.648;23.368;2023-03-24T07:06:51;94804.88;;;28.37;30.34
10946;BME280;5525;42.648;23.368;2023-03-24T07:09:18;94808.56;;;26.58;32.32
10946;BME280;5525;42.648;23.368;2023-03-24T07:11:45;94806.88;;;25.61;35.09
10946;BME280;5525;42.648;23.368;2023-03-24T07:14:12;94805.13;;;25.74;35.04
10946;BME280;5525;42.648;23.368;2023-03-24T07:16:38;94804.31;;;26.96;32.89
10946;BME280;5525;42.648;23.368;2023-03-24T07:19:05;94809.97;;;28.86;30.96
10946;BME280;5525;42.648;23.368;2023-03-24T07:21:33;94812.41;;;30.24;28.14
10946;BME280;5525;42.648;23.368;2023-03-24T07:24:00;94823.91;;;30.97;26.66
10946;BME280;5525;42.648;23.368;2023-03-24T07:26:27;94831.19;;;29.95;27.21
10946;BME280;5525;42.648;23.368;2023-03-24T07:28:54;94815.94;;;29.01;28.13
10946;BME280;5525;42.648;23.368;2023-03-24T07:31:21;94825.88;;;26.65;31.18
10946;BME280;5525;42.648;23.368;2023-03-24T07:33:49;94818.31;;;29.31;29.30
10946;BME280;5525;42.648;23.368;2023-03-24T07:36:15;94815.84;;;29.20;27.83
10946;BME280;5525;42.648;23.368;2023-03-24T07:38:43;94822.22;;;28.09;29.25
10946;BME280;5525;42.648;23.368;2023-03-24T07:41:10;94818.19;;;28.61;28.42
10946;BME280;5525;42.648;23.368;2023-03-24T07:43:37;94812.72;;;30.76;26.34
10946;BME280;5525;42.648;23.368;2023-03-24T07:46:03;94812.44;;;32.64;24.22
10946;BME280;5525;42.648;23.368;2023-03-24T07:48:30;94810.53;;;30.92;25.32
10946;BME280;5525;42.648;23.368;2023-03-24T07:50:57;94806.31;;;31.22;24.78
10946;BME280;5525;42.648;23.368;2023-03-24T07:53:23;94807.28;;;30.22;25.76
10946;BME280;5525;42.648;23.368;2023-03-24T07:55:52;94800.72;;;29.21;26.85
10946;BME280;5525;42.648;23.368;2023-03-24T07:58:18;94797.50;;;29.23;26.51
10946;BME280;5525;42.648;23.368;2023-03-24T08:00:45;94801.25;;;30.61;26.18
10946;BME280;5525;42.648;23.368;2023-03-24T08:03:12;94806.94;;;33.01;22.85
10946;BME280;5525;42.648;23.368;2023-03-24T08:05:40;94796.00;;;31.96;24.00
10946;BME280;5525;42.648;23.368;2023-03-24T08:08:08;94790.22;;;29.95;25.58
10946;BME280;5525;42.648;23.368;2023-03-24T08:10:35;94793.47;;;31.68;23.96
10946;BME280;5525;42.648;23.368;2023-03-24T08:13:03;94788.56;;;28.23;27.14
10946;BME280;5525;42.648;23.368;2023-03-24T08:15:30;94785.28;;;27.56;28.32
10946;BME280;5525;42.648;23.368;2023-03-24T08:17:57;94780.03;;;27.97;27.66
10946;BME280;5525;42.648;23.368;2023-03-24T08:20:24;94793.72;;;30.83;24.31
10946;BME280;5525;42.648;23.368;2023-03-24T08:22:54;94782.63;;;29.71;25.31
10946;BME280;5525;42.648;23.368;2023-03-24T08:25:22;94788.75;;;28.48;26.92
10946;BME280;5525;42.648;23.368;2023-03-24T08:27:50;94767.84;;;29.57;26.24
10946;BME280;5525;42.648;23.368;2023-03-24T08:30:19;94775.94;;;26.45;29.88
10946;BME280;5525;42.648;23.368;2023-03-24T08:32:48;94773.44;;;31.60;24.57
10946;BME280;5525;42.648;23.368;2023-03-24T08:35:18;94773.09;;;30.68;25.10
10946;BME280;5525;42.648;23.368;2023-03-24T08:37:46;94774.47;;;32.36;23.50
10946;BME280;5525;42.648;23.368;2023-03-24T08:40:15;94770.69;;;33.87;22.27
10946;BME280;5525;42.648;23.368;2023-03-24T08:42:44;94770.97;;;37.60;19.17
10946;BME280;5525;42.648;23.368;2023-03-24T08:45:13;94772.72;;;38.29;18.40
10946;BME280;5525;42.648;23.368;2023-03-24T08:47:41;94764.22;;;38.54;17.47
10946;BME280;5525;42.648;23.368;2023-03-24T08:50:09;94773.28;;;37.62;17.67
10946;BME280;5525;42.648;23.368;2023-03-24T08:52:36;94759.19;;;39.12;17.26
10946;BME280;5525;42.648;23.368;2023-03-24T08:55:03;94744.31;;;36.41;18.36
10946;BME280;5525;42.648;23.368;2023-03-24T08:57:30;94748.81;;;37.07;18.14
10946;BME280;5525;42.648;23.368;2023-03-24T08:59:57;94753.53;;;39.12;17.06
10946;BME280;5525;42.648;23.368;2023-03-24T09:02:23;94746.19;;;38.15;17.24
10946;BME280;5525;42.648;23.368;2023-03-24T09:04:52;94743.78;;;40.10;16.52
10946;BME280;5525;42.648;23.368;2023-03-24T09:07:20;94740.84;;;39.55;16.10
10946;BME280;5525;42.648;23.368;2023-03-24T09:09:47;94737.91;;;37.35;17.72
10946;BME280;5525;42.648;23.368;2023-03-24T09:12:14;94733.19;;;39.08;17.03
10946;BME280;5525;42.648;23.368;2023-03-24T09:14:46;94730.13;;;39.86;15.54
10946;BME280;5525;42.648;23.368;2023-03-24T09:17:13;94733.31;;;41.86;14.51
10946;BME280;5525;42.648;23.368;2023-03-24T09:19:40;94722.28;;;38.47;16.22
10946;BME280;5525;42.648;23.368;2023-03-24T09:22:08;94711.69;;;35.56;18.29
10946;BME280;5525;42.648;23.368;2023-03-24T09:24:35;94711.47;;;36.18;18.54
10946;BME280;5525;42.648;23.368;2023-03-24T09:27:02;94717.97;;;37.39;17.41
10946;BME280;5525;42.648;23.368;2023-03-24T09:29:28;94709.94;;;39.35;16.31
10946;BME280;5525;42.648;23.368;2023-03-24T09:31:55;94709.22;;;36.22;18.11
10946;BME280;5525;42.648;23.368;2023-03-24T09:34:22;94707.28;;;39.09;16.66
10946;BME280;5525;42.648;23.368;2023-03-24T09:36:49;94704.53;;;37.54;17.36
10946;BME280;5525;42.648;23.368;2023-03-24T09:39:18;94704.16;;;36.60;18.21
10946;BME280;5525;42.648;23.368;2023-03-24T09:41:45;94705.44;;;39.01;16.63
10946;BME280;5525;42.648;23.368;2023-03-24T09:44:21;94705.44;;;40.20;15.42
10946;BME280;5525;42.648;23.368;2023-03-24T09:46:51;94708.25;;;40.81;14.97
10946;BME280;5525;42.648;23.368;2023-03-24T09:49:22;94695.63;;;41.91;14.13
10946;BME280;5525;42.648;23.368;2023-03-24T09:51:53;94699.78;;;40.70;14.74
10946;BME280;5525;42.648;23.368;2023-03-24T09:54:29;94685.50;;;40.97;14.95
10946;BME280;5525;42.648;23.368;2023-03-24T09:56:57;94691.19;;;40.97;14.86
10946;BME280;5525;42.648;23.368;2023-03-24T09:59:31;94683.97;;;40.96;14.22
10946;BME280;5525;42.648;23.368;2023-03-24T10:02:00;94682.34;;;40.27;15.04
10946;BME280;5525;42.648;23.368;2023-03-24T10:04:28;94668.63;;;37.23;16.50
10946;BME280;5525;42.648;23.368;2023-03-24T10:07:00;94670.44;;;34.48;18.28
10946;BME280;5525;42.648;23.368;2023-03-24T10:09:34;94658.63;;;35.05;17.83
10946;BME280;5525;42.648;23.368;2023-03-24T10:12:19;94656.31;;;36.40;17.06
10946;BME280;5525;42.648;23.368;2023-03-24T10:14:57;94657.69;;;37.82;16.33
10946;BME280;5525;42.648;23.368;2023-03-24T10:17:38;94655.22;;;38.62;16.10
10946;BME280;5525;42.648;23.368;2023-03-24T10:20:14;94662.00;;;38.87;15.24
10946;BME280;5525;42.648;23.368;2023-03-24T10:22:52;94656.19;;;36.49;16.67
10946;BME280;5525;42.648;23.368;2023-03-24T10:25:24;94646.56;;;38.35;16.05
10946;BME280;5525;42.648;23.368;2023-03-24T10:27:56;94641.97;;;38.43;15.92
10946;BME280;5525;42.648;23.368;2023-03-24T10:30:28;94641.69;;;37.42;15.97
10946;BME280;5525;42.648;23.368;2023-03-24T10:32:56;94646.66;;;38.51;15.56
10946;BME280;5525;42.648;23.368;2023-03-24T10:35:26;94650.16;;;40.08;14.49
10946;BME280;5525;42.648;23.368;2023-03-24T10:37:56;94637.03;;;37.13;16.66
10946;BME280;5525;42.648;23.368;2023-03-24T10:40:27;94635.28;;;39.85;14.92
10946;BME280;5525;42.648;23.368;2023-03-24T10:42:55;94643.97;;;39.60;15.06
10946;BME280;5525;42.648;23.368;2023-03-24T10:45:26;94636.00;;;39.53;14.94
10946;BME280;5525;42.648;23.368;2023-03-24T10:47:56;94632.63;;;38.68;15.70
10946;BME280;5525;42.648;23.368;2023-03-24T10:50:25;94627.69;;;39.22;15.14
10946;BME280;5525;42.648;23.368;2023-03-24T10:52:53;94627.59;;;38.94;15.09
10946;BME280;5525;42.648;23.368;2023-03-24T10:55:23;94626.16;;;39.26;14.67
10946;BME280;5525;42.648;23.368;2023-03-24T10:57:58;94624.06;;;37.73;15.58
10946;BME280;5525;42.648;23.368;2023-03-24T11:00:26;94621.53;;;36.38;16.56
10946;BME280;5525;42.648;23.368;2023-03-24T11:02:58;94612.84;;;33.81;18.56
10946;BME280;5525;42.648;23.368;2023-03-24T11:05:27;94609.66;;;37.40;16.62
10946;BME280;5525;42.648;23.368;2023-03-24T11:07:59;94613.97;;;37.97;15.97
10946;BME280;5525;42.648;23.368;2023-03-24T11:10:35;94613.59;;;36.76;16.34
10946;BME280;5525;42.648;23.368;2023-03-24T11:13:04;94608.53;;;35.42;17.06
10946;BME280;5525;42.648;23.368;2023-03-24T11:15:52;94598.72;;;36.36;16.06
10946;BME280;5525;42.648;23.368;2023-03-24T11:18:19;94600.75;;;37.47;15.71
10946;BME280;5525;42.648;23.368;2023-03-24T11:20:57;94590.16;;;37.36;15.83
10946;BME280;5525;42.648;23.368;2023-03-24T11:23:28;94593.97;;;36.07;16.38
10946;BME280;5525;42.648;23.368;2023-03-24T11:26:04;94586.06;;;35.27;17.20
10946;BME280;5525;42.648;23.368;2023-03-24T11:28:37;94584.59;;;36.30;16.02
10946;BME280;5525;42.648;23.368;2023-03-24T11:31:07;94573.59;;;36.12;16.29
10946;BME280;5525;42.648;23.368;2023-03-24T11:33:41;94569.38;;;35.38;17.23
10946;BME280;5525;42.648;23.368;2023-03-24T11:36:38;94568.56;;;36.76;16.30
10946;BME280;5525;42.648;23.368;2023-03-24T11:39:11;94561.31;;;35.75;16.59
10946;BME280;5525;42.648;23.368;2023-03-24T11:41:41;94553.28;;;34.04;17.79
10946;BME280;5525;42.648;23.368;2023-03-24T11:44:21;94555.63;;;34.82;17.36
10946;BME280;5525;42.648;23.368;2023-03-24T11:46:50;94557.53;;;35.63;16.54
10946;BME280;5525;42.648;23.368;2023-03-24T11:49:20;94548.84;;;34.74;16.86
10946;BME280;5525;42.648;23.368;2023-03-24T11:51:52;94538.00;;;33.08;17.99
10946;BME280;5525;42.648;23.368;2023-03-24T11:54:23;94533.19;;;30.63;20.61
10946;BME280;5525;42.648;23.368;2023-03-24T11:56:52;94533.25;;;31.91;19.85
10946;BME280;5525;42.648;23.368;2023-03-24T11:59:28;94523.50;;;31.38;19.55
10946;BME280;5525;42.648;23.368;2023-03-24T12:02:01;94529.72;;;31.42;19.79
10946;BME280;5525;42.648;23.368;2023-03-24T12:04:39;94517.53;;;28.25;21.66
10946;BME280;5525;42.648;23.368;2023-03-24T12:10:31;94516.78;;;29.88;20.30
10946;BME280;5525;42.648;23.368;2023-03-24T12:13:06;94499.22;;;28.40;21.56
10946;BME280;5525;42.648;23.368;2023-03-24T12:15:42;94505.81;;;30.06;20.21
10946;BME280;5525;42.648;23.368;2023-03-24T12:18:41;94502.91;;;30.31;20.12
10946;BME280;5525;42.648;23.368;2023-03-24T12:21:20;94491.56;;;29.57;20.99
10946;BME280;5525;42.648;23.368;2023-03-24T12:23:56;94494.28;;;26.98;22.69
10946;BME280;5525;42.648;23.368;2023-03-24T12:26:24;94490.38;;;27.43;22.30
10946;BME280;5525;42.648;23.368;2023-03-24T12:29:28;94481.41;;;28.25;21.80
10946;BME280;5525;42.648;23.368;2023-03-24T12:32:24;94474.50;;;27.60;22.40
10946;BME280;5525;42.648;23.368;2023-03-24T12:37:58;94468.06;;;28.99;21.15
10946;BME280;5525;42.648;23.368;2023-03-24T12:40:42;94459.06;;;28.70;21.55
10946;BME280;5525;42.648;23.368;2023-03-24T12:43:24;94461.84;;;28.70;21.20
10946;BME280;5525;42.648;23.368;2023-03-24T12:45:54;94452.56;;;27.94;21.78
10946;BME280;5525;42.648;23.368;2023-03-24T12:48:38;94448.63;;;27.02;22.87
10946;BME280;5525;42.648;23.368;2023-03-24T12:51:16;94449.47;;;26.31;23.83
10946;BME280;5525;42.648;23.368;2023-03-24T12:53:54;94444.59;;;26.19;23.66
10946;BME280;5525;42.648;23.368;2023-03-24T12:56:31;94440.44;;;26.11;23.68
10946;BME280;5525;42.648;23.368;2023-03-24T12:59:02;94433.16;;;26.01;24.02
10946;BME280;5525;42.648;23.368;2023-03-24T13:01:32;94437.84;;;25.62;24.25
10946;BME280;5525;42.648;23.368;2023-03-24T13:04:09;94426.41;;;25.40;24.78
10946;BME280;5525;42.648;23.368;2023-03-24T13:06:40;94426.94;;;25.35;24.58
10946;BME280;5525;42.648;23.368;2023-03-24T13:09:16;94425.31;;;25.57;24.42
10946;BME280;5525;42.648;23.368;2023-03-24T13:11:50;94423.81;;;25.33;24.67
10946;BME280;5525;42.648;23.368;2023-03-24T13:14:22;94418.88;;;25.21;24.82
10946;BME280;5525;42.648;23.368;2023-03-24T13:16:58;94417.44;;;25.13;24.39
10946;BME280;5525;42.648;23.368;2023-03-24T13:19:28;94415.81;;;24.92;23.83
10946;BME280;5525;42.648;23.368;2023-03-24T13:21:55;94423.19;;;24.76;24.72
10946;BME280;5525;42.648;23.368;2023-03-24T13:24:23;94413.78;;;24.47;25.55
10946;BME280;5525;42.648;23.368;2023-03-24T13:26:57;94402.19;;;24.32;25.47
10946;BME280;5525;42.648;23.368;2023-03-24T13:29:48;94401.94;;;23.90;26.21
10946;BME280;5525;42.648;23.368;2023-03-24T13:32:25;94401.72;;;23.77;25.33